createdAt,value
2022-07-27T00:00:49.046Z,14.62
2022-07-27T00:03:15.864Z,14.59
2022-07-27T00:05:42.885Z,14.55
2022-07-27T00:08:09.702Z,14.51
2022-07-27T00:10:37.139Z,14.47
2022-07-27T00:13:06.519Z,14.47
2022-07-27T00:15:34.646Z,14.42
2022-07-27T00:18:01.682Z,14.30
2022-07-27T00:20:29.126Z,14.24
2022-07-27T00:22:56.498Z,14.18
2022-07-27T00:25:24.392Z,14.12
2022-07-27T00:27:51.150Z,14.10
2022-07-27T00:30:18.127Z,14.04
2022-07-27T00:32:44.985Z,13.93
2022-07-27T00:35:12.652Z,13.87
2022-07-27T00:37:40.266Z,13.81
2022-07-27T00:40:08.011Z,13.75
2022-07-27T00:42:35.330Z,13.66
2022-07-27T00:45:03.535Z,13.63
2022-07-27T00:47:30.285Z,13.59
2022-07-27T00:49:58.316Z,13.64
2022-07-27T00:52:25.727Z,13.60
2022-07-27T00:54:52.954Z,13.65
2022-07-27T00:57:19.775Z,13.69
2022-07-27T00:59:46.723Z,13.77
2022-07-27T01:02:19.536Z,13.84
2022-07-27T01:04:47.342Z,13.92
2022-07-27T01:07:15.560Z,13.97
2022-07-27T01:09:58.166Z,13.98
2022-07-27T01:12:30.449Z,13.95
2022-07-27T01:14:58.401Z,13.84
2022-07-27T01:17:26.651Z,13.79
2022-07-27T01:19:54.091Z,13.73
2022-07-27T01:22:20.824Z,13.73
2022-07-27T01:24:48.662Z,13.67
2022-07-27T01:27:15.425Z,13.68
2022-07-27T01:29:42.179Z,13.74
2022-07-27T01:32:09.233Z,13.80
2022-07-27T01:34:36.303Z,13.80
2022-07-27T01:37:05.085Z,13.86
2022-07-27T01:39:32.810Z,13.83
2022-07-27T01:42:01.121Z,13.83
2022-07-27T01:44:27.988Z,13.82
2022-07-27T01:46:55.081Z,13.80
2022-07-27T01:49:22.434Z,13.81
2022-07-27T01:51:49.417Z,13.77
2022-07-27T01:54:16.295Z,13.77
2022-07-27T01:56:43.273Z,13.83
2022-07-27T01:59:16.188Z,13.80
2022-07-27T02:01:44.619Z,13.81
2022-07-27T02:04:11.683Z,13.77
2022-07-27T02:06:38.443Z,13.72
2022-07-27T02:09:05.252Z,13.69
2022-07-27T02:11:50.644Z,13.62
2022-07-27T02:14:17.437Z,13.44
2022-07-27T02:16:44.228Z,13.35
2022-07-27T02:19:12.122Z,13.28
2022-07-27T02:21:39.217Z,13.19
2022-07-27T02:24:06.579Z,13.16
2022-07-27T02:26:33.567Z,13.13
2022-07-27T02:29:00.395Z,13.06
2022-07-27T02:31:32.912Z,13.02
2022-07-27T02:34:00.381Z,13.01
2022-07-27T02:36:29.325Z,13.04
2022-07-27T02:38:57.137Z,13.06
2022-07-27T02:41:24.289Z,13.05
2022-07-27T02:43:51.162Z,13.04
2022-07-27T02:46:18.024Z,12.97
2022-07-27T02:48:44.769Z,12.96
2022-07-27T02:51:11.647Z,12.94
2022-07-27T02:53:38.361Z,12.97
2022-07-27T02:56:05.290Z,13.01
2022-07-27T02:58:36.271Z,13.02
2022-07-27T03:01:04.126Z,13.00
2022-07-27T03:03:36.609Z,12.98
2022-07-27T03:06:08.229Z,12.95
2022-07-27T03:08:36.223Z,12.92
2022-07-27T03:11:03.435Z,12.89
2022-07-27T03:13:30.562Z,12.87
2022-07-27T03:15:58.271Z,12.87
2022-07-27T03:18:25.256Z,12.89
2022-07-27T03:20:52.054Z,12.94
2022-07-27T03:23:19.028Z,13.03
2022-07-27T03:25:45.815Z,13.11
2022-07-27T03:28:13.077Z,13.15
2022-07-27T03:30:39.836Z,13.14
2022-07-27T03:33:06.847Z,13.16
2022-07-27T03:35:33.787Z,13.21
2022-07-27T03:38:00.616Z,13.26
2022-07-27T03:40:29.604Z,13.30
2022-07-27T03:42:56.593Z,13.30
2022-07-27T03:45:23.451Z,13.33
2022-07-27T03:47:50.197Z,13.39
2022-07-27T03:50:16.946Z,13.42
2022-07-27T03:52:45.425Z,13.46
2022-07-27T03:55:12.668Z,13.60
2022-07-27T03:57:39.868Z,13.61
2022-07-27T04:00:08.645Z,13.69
2022-07-27T04:02:35.520Z,13.73
2022-07-27T04:05:02.328Z,13.73
2022-07-27T04:07:29.236Z,13.81
2022-07-27T04:09:56.014Z,13.82
2022-07-27T04:12:22.821Z,13.87
2022-07-27T04:14:49.589Z,13.91
2022-07-27T04:17:56.586Z,13.95
2022-07-27T04:20:04.216Z,13.99
2022-07-27T04:22:31.228Z,14.05
2022-07-27T04:24:58.009Z,14.12
2022-07-27T04:27:25.386Z,14.15
2022-07-27T04:29:52.097Z,14.21
2022-07-27T04:32:19.201Z,14.30
2022-07-27T04:34:45.986Z,14.31
2022-07-27T04:37:12.805Z,14.36
2022-07-27T04:39:39.543Z,14.32
2022-07-27T04:42:06.668Z,14.27
2022-07-27T04:44:33.809Z,14.25
2022-07-27T04:47:00.633Z,14.39
2022-07-27T04:49:27.441Z,14.51
2022-07-27T04:51:54.270Z,14.61
2022-07-27T04:54:21.011Z,14.74
2022-07-27T04:56:47.888Z,14.83
2022-07-27T04:59:14.979Z,14.83
2022-07-27T05:01:41.968Z,15.09
2022-07-27T05:04:08.880Z,15.27
2022-07-27T05:06:35.701Z,15.22
2022-07-27T05:09:03.283Z,15.07
2022-07-27T05:11:29.984Z,15.01
2022-07-27T05:13:56.795Z,15.03
2022-07-27T05:16:28.286Z,14.93
2022-07-27T05:18:55.466Z,14.82
2022-07-27T05:21:22.162Z,14.83
2022-07-27T05:23:48.947Z,14.96
2022-07-27T05:26:15.738Z,15.19
2022-07-27T05:28:42.456Z,15.28
2022-07-27T05:31:09.271Z,15.26
2022-07-27T05:33:36.032Z,15.27
2022-07-27T05:36:02.771Z,15.22
2022-07-27T05:38:39.417Z,15.35
2022-07-27T05:41:07.802Z,15.51
2022-07-27T05:43:34.594Z,15.58
2022-07-27T05:46:01.597Z,15.66
2022-07-27T05:48:28.461Z,15.77
2022-07-27T05:50:55.214Z,16.05
2022-07-27T05:53:21.941Z,15.88
2022-07-27T05:55:59.055Z,16.09
2022-07-27T05:58:29.512Z,16.01
2022-07-27T06:00:56.909Z,15.98
2022-07-27T06:03:24.910Z,16.12
2022-07-27T06:05:52.046Z,16.07
2022-07-27T06:08:18.825Z,15.91
2022-07-27T06:10:45.600Z,15.78
2022-07-27T06:13:12.332Z,16.05
2022-07-27T06:15:40.437Z,15.99
2022-07-27T06:18:09.102Z,16.14
2022-07-27T06:20:36.010Z,16.14
2022-07-27T06:23:08.106Z,16.09
2022-07-27T06:25:35.971Z,16.08
2022-07-27T06:28:04.991Z,16.15
2022-07-27T06:30:32.385Z,16.11
2022-07-27T06:32:59.813Z,15.97
2022-07-27T06:35:27.510Z,16.11
2022-07-27T06:37:54.217Z,16.08
2022-07-27T06:40:20.969Z,16.27
2022-07-27T06:42:47.702Z,16.40
2022-07-27T06:45:15.051Z,16.50
2022-07-27T06:47:48.952Z,16.48
2022-07-27T06:50:17.645Z,16.29
2022-07-27T06:52:44.565Z,16.23
2022-07-27T06:55:11.384Z,16.17
2022-07-27T06:57:38.198Z,16.30
2022-07-27T07:00:06.919Z,16.16
2022-07-27T07:02:33.696Z,16.44
2022-07-27T07:05:00.471Z,16.41
2022-07-27T07:07:27.153Z,16.40
2022-07-27T07:09:53.852Z,16.47
2022-07-27T07:12:20.617Z,16.55
2022-07-27T07:14:47.277Z,16.33
2022-07-27T07:17:14.072Z,16.33
2022-07-27T07:19:40.802Z,16.41
2022-07-27T07:22:07.530Z,16.46
2022-07-27T07:24:34.299Z,16.31
2022-07-27T07:27:01.007Z,16.41
2022-07-27T07:29:27.869Z,16.41
2022-07-27T07:31:54.829Z,16.49
2022-07-27T07:34:21.693Z,16.56
2022-07-27T07:36:48.472Z,16.72
2022-07-27T07:39:15.515Z,16.83
2022-07-27T07:41:42.455Z,16.98
2022-07-27T07:44:10.157Z,16.88
2022-07-27T07:46:37.113Z,16.71
2022-07-27T07:49:05.270Z,17.36
2022-07-27T07:51:32.239Z,17.68
2022-07-27T07:53:59.450Z,17.58
2022-07-27T07:56:26.301Z,16.99
2022-07-27T07:58:53.212Z,17.00
2022-07-27T08:01:20.296Z,16.89
2022-07-27T08:03:50.851Z,16.76
2022-07-27T08:06:19.045Z,16.78
2022-07-27T08:08:45.757Z,17.03
2022-07-27T08:11:12.525Z,16.85
2022-07-27T08:13:39.643Z,16.83
2022-07-27T08:16:06.720Z,16.84
2022-07-27T08:18:33.561Z,17.06
2022-07-27T08:21:00.357Z,17.16
2022-07-27T08:23:27.110Z,17.21
2022-07-27T08:25:54.644Z,17.33
2022-07-27T08:28:21.406Z,18.40
2022-07-27T08:30:49.336Z,18.42
2022-07-27T08:33:16.679Z,18.74
2022-07-27T08:35:45.047Z,19.32
2022-07-27T08:38:12.434Z,18.30
2022-07-27T08:40:43.316Z,17.85
2022-07-27T08:43:13.014Z,17.60
2022-07-27T08:45:41.675Z,17.82
2022-07-27T08:48:13.674Z,17.81
2022-07-27T08:50:42.795Z,17.83
2022-07-27T08:53:12.553Z,17.73
2022-07-27T08:55:41.785Z,17.46
2022-07-27T08:58:10.182Z,17.51
2022-07-27T09:00:40.489Z,17.59
2022-07-27T09:03:07.607Z,17.75
2022-07-27T09:05:42.831Z,17.50
2022-07-27T09:08:16.636Z,17.50
2022-07-27T09:10:43.861Z,17.63
2022-07-27T09:13:19.645Z,18.39
2022-07-27T09:18:39.766Z,18.32
2022-07-27T09:21:21.558Z,17.95
2022-07-27T09:24:36.630Z,18.78
2022-07-27T09:27:05.666Z,18.84
2022-07-27T09:29:36.351Z,19.59
2022-07-27T09:32:14.828Z,19.00
2022-07-27T09:34:41.743Z,18.56
2022-07-27T09:37:10.076Z,18.75
2022-07-27T09:39:36.856Z,17.95
2022-07-27T09:42:03.699Z,18.33
2022-07-27T09:44:43.406Z,18.02
2022-07-27T09:47:28.944Z,17.99
2022-07-27T09:50:21.111Z,18.08
2022-07-27T09:52:47.796Z,17.81
2022-07-27T09:55:14.692Z,18.04
2022-07-27T09:57:56.679Z,18.36
2022-07-27T10:00:24.413Z,18.36
2022-07-27T10:02:52.688Z,18.81
2022-07-27T10:05:21.714Z,18.41
2022-07-27T10:07:49.916Z,18.47
2022-07-27T10:10:17.390Z,18.24
2022-07-27T10:12:46.823Z,18.43
2022-07-27T10:15:14.952Z,19.16
2022-07-27T10:17:44.132Z,18.37
2022-07-27T10:20:13.993Z,18.27
2022-07-27T10:22:52.206Z,18.47
2022-07-27T10:25:19.797Z,18.75
2022-07-27T10:27:49.261Z,19.01
2022-07-27T10:30:27.677Z,19.78
2022-07-27T10:32:54.606Z,19.85
2022-07-27T10:35:36.593Z,20.19
2022-07-27T10:38:15.361Z,20.27
2022-07-27T10:40:43.669Z,19.78
2022-07-27T10:43:21.876Z,19.65
2022-07-27T10:46:01.815Z,20.15
2022-07-27T10:48:47.762Z,19.47
2022-07-27T10:51:17.043Z,19.17
2022-07-27T10:56:46.655Z,18.42
2022-07-27T10:59:13.783Z,18.85
2022-07-27T11:01:57.169Z,18.30
2022-07-27T11:04:24.769Z,18.33
2022-07-27T11:07:23.687Z,18.11
2022-07-27T11:12:31.594Z,19.01
2022-07-27T11:14:58.892Z,18.78
2022-07-27T11:20:14.713Z,18.77
2022-07-27T11:25:29.217Z,18.62
2022-07-27T11:27:55.981Z,19.17
2022-07-27T11:30:25.279Z,18.61
2022-07-27T11:32:52.282Z,18.46
2022-07-27T11:35:20.413Z,18.52
2022-07-27T11:38:06.038Z,18.38
2022-07-27T11:43:45.090Z,19.16
2022-07-27T11:46:17.031Z,19.26
2022-07-27T11:49:17.725Z,19.22
2022-07-27T11:51:47.170Z,19.09
2022-07-27T11:54:22.256Z,19.18
2022-07-27T11:56:55.076Z,19.13
2022-07-27T11:59:30.210Z,18.87
2022-07-27T12:02:07.158Z,18.92
2022-07-27T12:04:39.333Z,19.47
2022-07-27T12:07:16.723Z,19.82
2022-07-27T12:09:45.690Z,20.12
2022-07-27T12:12:21.435Z,20.00
2022-07-27T12:14:51.095Z,19.30
2022-07-27T12:17:31.637Z,18.97
2022-07-27T12:20:00.651Z,19.02
2022-07-27T12:22:41.018Z,19.00
2022-07-27T12:25:16.396Z,18.64
2022-07-27T12:27:56.566Z,18.91
2022-07-27T12:30:32.317Z,18.59
2022-07-27T12:32:59.423Z,18.39
2022-07-27T12:35:37.245Z,18.99
2022-07-27T12:38:08.695Z,18.85
2022-07-27T12:40:46.753Z,18.72
2022-07-27T12:43:17.416Z,18.48
2022-07-27T12:45:44.619Z,18.51
2022-07-27T12:48:25.511Z,18.47
2022-07-27T12:51:03.980Z,18.83
2022-07-27T12:53:32.600Z,19.02
2022-07-27T12:56:03.657Z,19.16
2022-07-27T12:58:30.621Z,18.83
2022-07-27T13:00:57.412Z,18.98
2022-07-27T13:03:24.321Z,19.85
2022-07-27T13:05:51.162Z,19.08
2022-07-27T13:08:17.859Z,18.43
2022-07-27T13:10:44.926Z,18.71
2022-07-27T13:13:11.830Z,18.69
2022-07-27T13:15:38.569Z,18.41
2022-07-27T13:18:05.412Z,18.74
2022-07-27T13:20:32.781Z,18.94
2022-07-27T13:22:59.538Z,18.55
2022-07-27T13:25:26.462Z,18.47
2022-07-27T13:27:53.263Z,18.76
2022-07-27T13:30:20.088Z,18.80
2022-07-27T13:32:48.065Z,18.82
2022-07-27T13:35:17.033Z,18.68
2022-07-27T13:37:45.018Z,18.48
2022-07-27T13:40:12.527Z,18.48
2022-07-27T13:42:39.300Z,18.59
2022-07-27T13:45:10.472Z,18.27
2022-07-27T13:47:39.281Z,19.09
2022-07-27T13:50:12.107Z,19.28
2022-07-27T13:52:44.502Z,19.11
2022-07-27T13:55:11.314Z,19.06
2022-07-27T13:57:38.095Z,18.65
2022-07-27T14:00:05.503Z,19.01
2022-07-27T14:02:32.407Z,18.94
2022-07-27T14:04:59.233Z,18.62
2022-07-27T14:07:28.167Z,18.58
2022-07-27T14:10:14.331Z,18.49
2022-07-27T14:12:41.126Z,18.29
2022-07-27T14:15:08.221Z,18.23
2022-07-27T14:17:35.231Z,18.18
2022-07-27T14:20:02.020Z,18.12
2022-07-27T14:22:28.792Z,18.40
2022-07-27T14:24:55.497Z,18.08
2022-07-27T14:27:22.226Z,18.12
2022-07-27T14:29:48.964Z,18.37
2022-07-27T14:32:15.713Z,18.22
2022-07-27T14:34:44.338Z,18.08
2022-07-27T14:37:11.157Z,18.11
2022-07-27T14:39:39.295Z,18.08
2022-07-27T14:42:06.374Z,18.11
2022-07-27T14:44:35.017Z,18.17
2022-07-27T14:47:02.955Z,17.96
2022-07-27T14:49:29.756Z,17.82
2022-07-27T14:51:56.848Z,18.33
2022-07-27T14:54:23.633Z,18.31
2022-07-27T14:56:50.371Z,18.37
2022-07-27T14:59:17.322Z,18.14
2022-07-27T15:01:44.293Z,18.14
2022-07-27T15:04:11.163Z,18.20
2022-07-27T15:06:39.441Z,18.38
2022-07-27T15:09:07.760Z,18.47
2022-07-27T15:11:34.953Z,18.70
2022-07-27T15:14:05.227Z,18.55
2022-07-27T15:16:32.361Z,18.54
2022-07-27T15:18:59.611Z,18.36
2022-07-27T15:21:26.870Z,18.24
2022-07-27T15:23:53.791Z,18.07
2022-07-27T15:26:20.700Z,18.09
2022-07-27T15:28:47.416Z,17.93
2022-07-27T15:31:14.328Z,17.88
2022-07-27T15:33:41.890Z,17.78
2022-07-27T15:36:08.742Z,17.79
2022-07-27T15:38:35.442Z,17.76
2022-07-27T15:41:02.204Z,17.83
2022-07-27T15:43:29.206Z,18.01
2022-07-27T15:45:56.031Z,18.13
2022-07-27T15:48:23.420Z,18.13
2022-07-27T15:50:52.599Z,18.15
2022-07-27T15:53:21.722Z,17.88
2022-07-27T15:55:49.012Z,17.77
2022-07-27T15:58:20.789Z,17.98
2022-07-27T16:00:51.060Z,17.97
2022-07-27T16:03:18.687Z,18.16
2022-07-27T16:05:49.894Z,18.30
2022-07-27T16:08:18.737Z,18.08
2022-07-27T16:10:47.672Z,18.02
2022-07-27T16:13:14.650Z,17.81
2022-07-27T16:16:00.913Z,17.80
2022-07-27T16:18:28.521Z,17.83
2022-07-27T16:20:55.685Z,17.77
2022-07-27T16:23:23.433Z,17.57
2022-07-27T16:26:10.538Z,17.72
2022-07-27T16:28:40.798Z,17.74
2022-07-27T16:31:10.515Z,17.66
2022-07-27T16:33:37.955Z,17.74
2022-07-27T16:36:06.003Z,17.80
2022-07-27T16:38:34.874Z,17.79
2022-07-27T16:41:05.559Z,17.60
2022-07-27T16:43:38.908Z,17.66
2022-07-27T16:46:08.106Z,17.65
2022-07-27T16:48:41.753Z,17.86
2022-07-27T16:51:11.084Z,17.57
2022-07-27T16:53:43.289Z,17.52
2022-07-27T16:56:11.428Z,17.40
2022-07-27T16:58:38.778Z,17.37
2022-07-27T17:01:07.847Z,17.27
2022-07-27T17:03:34.699Z,17.25
2022-07-27T17:06:05.987Z,17.34
2022-07-27T17:08:34.785Z,17.29
2022-07-27T17:11:02.557Z,17.20
2022-07-27T17:13:33.932Z,17.21
2022-07-27T17:16:05.827Z,17.18
2022-07-27T17:18:39.540Z,17.10
2022-07-27T17:21:07.633Z,17.06
2022-07-27T17:23:38.260Z,17.08
2022-07-27T17:26:09.925Z,16.93
2022-07-27T17:28:39.303Z,17.00
2022-07-27T17:31:09.164Z,17.03
2022-07-27T17:33:36.685Z,17.00
2022-07-27T17:36:03.468Z,16.99
2022-07-27T17:38:30.412Z,17.04
2022-07-27T17:40:57.505Z,16.98
2022-07-27T17:43:24.305Z,16.91
2022-07-27T17:45:51.632Z,16.87
2022-07-27T17:48:18.457Z,16.90
2022-07-27T17:50:45.227Z,16.75
2022-07-27T17:53:11.996Z,16.77
2022-07-27T17:55:38.751Z,16.82
2022-07-27T17:58:05.600Z,16.67
2022-07-27T18:00:32.667Z,16.66
2022-07-27T18:03:00.225Z,16.64
2022-07-27T18:05:27.114Z,16.70
2022-07-27T18:07:54.160Z,16.66
2022-07-27T18:10:21.066Z,16.63
2022-07-27T18:12:47.893Z,16.54
2022-07-27T18:15:33.057Z,16.57
2022-07-27T18:18:00.082Z,16.46
2022-07-27T18:20:33.811Z,16.46
2022-07-27T18:23:00.995Z,16.39
2022-07-27T18:25:27.886Z,16.44
2022-07-27T18:27:54.654Z,16.39
2022-07-27T18:30:21.355Z,16.42
2022-07-27T18:32:48.082Z,16.40
2022-07-27T18:35:15.252Z,16.38
2022-07-27T18:37:42.103Z,16.30
2022-07-27T18:40:09.768Z,16.28
2022-07-27T18:42:38.371Z,16.25
2022-07-27T18:45:09.884Z,16.14
2022-07-27T18:47:37.564Z,16.16
2022-07-27T18:50:06.135Z,16.14
2022-07-27T18:52:33.501Z,16.12
2022-07-27T18:55:00.403Z,16.06
2022-07-27T18:57:27.782Z,16.08
2022-07-27T18:59:54.528Z,16.00
2022-07-27T19:02:23.204Z,15.98
2022-07-27T19:04:54.055Z,15.91
2022-07-27T19:07:22.158Z,15.94
2022-07-27T19:09:51.016Z,15.91
2022-07-27T19:12:19.966Z,15.88
2022-07-27T19:14:50.257Z,15.85
2022-07-27T19:17:19.058Z,15.88
2022-07-27T19:19:46.360Z,15.83
2022-07-27T19:22:13.610Z,15.79
2022-07-27T19:24:40.584Z,15.77
2022-07-27T19:27:07.342Z,15.75
2022-07-27T19:29:34.268Z,15.74
2022-07-27T19:32:01.104Z,15.77
2022-07-27T19:34:27.902Z,15.67
2022-07-27T19:36:54.575Z,15.71
2022-07-27T19:39:21.316Z,15.65
2022-07-27T19:41:48.005Z,15.67
2022-07-27T19:44:19.060Z,15.66
2022-07-27T19:46:48.897Z,15.62
2022-07-27T19:49:18.274Z,15.59
2022-07-27T19:51:45.465Z,15.63
2022-07-27T19:54:12.295Z,15.60
2022-07-27T19:56:39.130Z,15.61
2022-07-27T19:59:06.617Z,15.61
2022-07-27T20:01:33.919Z,15.48
2022-07-27T20:04:00.909Z,15.47
2022-07-27T20:06:27.653Z,15.54
2022-07-27T20:08:59.505Z,15.43
2022-07-27T20:11:28.332Z,15.41
2022-07-27T20:13:55.115Z,15.38
2022-07-27T20:16:21.935Z,15.41
2022-07-27T20:18:48.711Z,15.39
2022-07-27T20:21:22.836Z,15.40
2022-07-27T20:23:52.058Z,15.37
2022-07-27T20:26:19.357Z,15.36
2022-07-27T20:28:46.070Z,15.33
2022-07-27T20:31:13.232Z,15.37
2022-07-27T20:33:53.631Z,15.36
2022-07-27T20:36:27.189Z,15.30
2022-07-27T20:38:53.985Z,15.33
2022-07-27T20:41:20.707Z,15.33
2022-07-27T20:43:47.543Z,15.34
2022-07-27T20:46:15.742Z,15.33
2022-07-27T20:48:42.711Z,15.30
2022-07-27T20:51:09.931Z,15.32
2022-07-27T20:53:36.746Z,15.29
2022-07-27T20:56:03.684Z,15.26
2022-07-27T20:58:31.626Z,15.30
2022-07-27T21:00:59.883Z,15.27
2022-07-27T21:03:27.507Z,15.23
2022-07-27T21:05:54.976Z,15.26
2022-07-27T21:08:22.394Z,15.18
2022-07-27T21:10:49.704Z,15.15
2022-07-27T21:13:17.731Z,15.10
2022-07-27T21:15:44.836Z,15.15
2022-07-27T21:18:12.265Z,15.13
2022-07-27T21:20:39.827Z,15.18
2022-07-27T21:23:28.497Z,15.18
2022-07-27T21:25:56.066Z,15.10
2022-07-27T21:28:25.420Z,15.06
2022-07-27T21:30:52.547Z,14.98
2022-07-27T21:33:20.456Z,14.89
2022-07-27T21:35:47.629Z,14.87
2022-07-27T21:38:15.303Z,14.77
2022-07-27T21:40:42.461Z,14.80
2022-07-27T21:43:09.655Z,14.77
2022-07-27T21:45:36.910Z,14.76
2022-07-27T21:48:04.357Z,14.73
2022-07-27T21:50:35.442Z,14.70
2022-07-27T21:53:02.532Z,14.73
2022-07-27T21:55:29.421Z,14.77
2022-07-27T21:57:56.174Z,14.79
2022-07-27T22:00:25.486Z,14.77
2022-07-27T22:02:52.611Z,14.76
2022-07-27T22:05:19.704Z,14.80
2022-07-27T22:07:46.731Z,14.78
2022-07-27T22:10:13.613Z,14.79
2022-07-27T22:12:40.617Z,14.74
2022-07-27T22:15:08.335Z,14.68
2022-07-27T22:17:35.070Z,14.64
2022-07-27T22:20:12.872Z,14.61
2022-07-27T22:22:39.998Z,14.62
2022-07-27T22:25:07.570Z,14.60
2022-07-27T22:27:34.930Z,14.53
2022-07-27T22:30:02.778Z,14.49
2022-07-27T22:32:29.569Z,14.41
2022-07-27T22:34:56.287Z,14.35
2022-07-27T22:37:23.077Z,14.33
2022-07-27T22:39:51.286Z,14.28
2022-07-27T22:42:18.108Z,14.22
2022-07-27T22:44:44.838Z,14.17
2022-07-27T22:47:12.045Z,14.15
2022-07-27T22:49:38.993Z,14.08
2022-07-27T22:52:06.702Z,14.01
2022-07-27T22:54:38.316Z,13.98
2022-07-27T22:57:06.287Z,13.90
2022-07-27T22:59:34.133Z,13.87
2022-07-27T23:02:01.383Z,13.84
2022-07-27T23:04:28.470Z,13.79
2022-07-27T23:06:55.511Z,13.77
2022-07-27T23:09:23.228Z,13.74
2022-07-27T23:11:51.133Z,13.72
2022-07-27T23:14:18.822Z,13.70
2022-07-27T23:16:46.079Z,13.69
2022-07-27T23:19:13.148Z,13.67
2022-07-27T23:21:41.896Z,13.62
2022-07-27T23:24:11.146Z,13.58
2022-07-27T23:26:38.730Z,13.51
2022-07-27T23:29:05.508Z,13.42
2022-07-27T23:31:32.479Z,13.37
2022-07-27T23:33:59.889Z,13.27
2022-07-27T23:36:26.762Z,13.24
2022-07-27T23:38:53.929Z,13.11
2022-07-27T23:41:20.809Z,13.01
2022-07-27T23:43:47.486Z,12.89
2022-07-27T23:46:14.582Z,12.91
2022-07-27T23:48:41.525Z,12.92
2022-07-27T23:51:09.285Z,12.77
2022-07-27T23:53:36.100Z,12.73
2022-07-27T23:56:02.983Z,12.65
2022-07-27T23:58:29.863Z,12.68
